createdAt,value
2024-05-09T00:00:40.850Z,11.41
2024-05-09T00:01:39.439Z,11.46
2024-05-09T00:02:39.425Z,11.43
2024-05-09T00:03:39.483Z,11.43
2024-05-09T00:04:39.447Z,11.38
2024-05-09T00:05:39.442Z,11.36
2024-05-09T00:06:39.372Z,11.35
2024-05-09T00:07:39.344Z,11.32
2024-05-09T00:08:39.343Z,11.29
2024-05-09T00:09:39.345Z,11.34
2024-05-09T00:10:40.537Z,11.35
2024-05-09T00:11:39.351Z,11.38
2024-05-09T00:12:39.305Z,11.34
2024-05-09T00:13:39.292Z,11.34
2024-05-09T00:14:39.298Z,11.36
2024-05-09T00:15:39.320Z,11.31
2024-05-09T00:16:39.262Z,11.27
2024-05-09T00:17:39.632Z,11.25
2024-05-09T00:18:39.316Z,11.25
2024-05-09T00:19:39.394Z,11.21
2024-05-09T00:20:41.066Z,11.19
2024-05-09T00:21:39.235Z,11.20
2024-05-09T00:22:39.192Z,11.16
2024-05-09T00:23:39.342Z,11.17
2024-05-09T00:24:39.196Z,11.10
2024-05-09T00:25:39.158Z,11.07
2024-05-09T00:26:39.164Z,11.11
2024-05-09T00:27:39.147Z,11.10
2024-05-09T00:28:39.156Z,11.10
2024-05-09T00:29:39.173Z,11.07
2024-05-09T00:30:39.147Z,11.09
2024-05-09T00:31:39.115Z,11.09
2024-05-09T00:32:39.209Z,11.09
2024-05-09T00:33:39.286Z,11.09
2024-05-09T00:34:39.080Z,11.01
2024-05-09T00:35:39.368Z,11.03
2024-05-09T00:36:39.038Z,11.01
2024-05-09T00:37:39.049Z,11.07
2024-05-09T00:38:39.060Z,11.06
2024-05-09T00:39:39.017Z,11.03
2024-05-09T00:40:41.672Z,11.03
2024-05-09T00:41:39.029Z,11.10
2024-05-09T00:42:38.996Z,11.10
2024-05-09T00:43:38.995Z,11.14
2024-05-09T00:44:39.029Z,11.13
2024-05-09T00:45:39.025Z,11.16
2024-05-09T00:46:38.958Z,11.17
2024-05-09T00:47:39.016Z,11.14
2024-05-09T00:48:39.083Z,11.13
2024-05-09T00:49:38.977Z,11.13
2024-05-09T00:50:39.139Z,11.13
2024-05-09T00:51:38.970Z,11.16
2024-05-09T00:52:38.876Z,11.14
2024-05-09T00:53:39.049Z,11.11
2024-05-09T00:54:38.848Z,11.10
2024-05-09T00:55:38.976Z,11.11
2024-05-09T00:56:39.550Z,11.10
2024-05-09T00:57:38.815Z,11.09
2024-05-09T00:58:38.828Z,11.02
2024-05-09T00:59:38.900Z,11.02
2024-05-09T01:00:40.820Z,11.03
2024-05-09T01:01:38.980Z,11.02
2024-05-09T01:02:38.874Z,11.02
2024-05-09T01:03:39.033Z,11.01
2024-05-09T01:04:38.778Z,11.01
2024-05-09T01:05:38.947Z,10.92
2024-05-09T01:06:38.721Z,10.92
2024-05-09T01:07:38.747Z,10.91
2024-05-09T01:08:38.893Z,10.89
2024-05-09T01:09:38.738Z,10.89
2024-05-09T01:10:39.543Z,10.86
2024-05-09T01:11:38.840Z,10.83
2024-05-09T01:12:38.743Z,10.84
2024-05-09T01:13:38.683Z,10.83
2024-05-09T01:14:38.699Z,10.83
2024-05-09T01:15:38.626Z,10.80
2024-05-09T01:16:38.625Z,10.83
2024-05-09T01:17:38.779Z,10.83
2024-05-09T01:18:38.687Z,10.81
2024-05-09T01:19:38.865Z,10.84
2024-05-09T01:20:42.430Z,10.84
2024-05-09T01:21:38.571Z,10.80
2024-05-09T01:22:38.573Z,10.77
2024-05-09T01:23:38.647Z,10.77
2024-05-09T01:24:38.574Z,10.73
2024-05-09T01:25:38.572Z,10.68
2024-05-09T01:26:38.580Z,10.65
2024-05-09T01:27:38.536Z,10.62
2024-05-09T01:28:38.507Z,10.66
2024-05-09T01:29:38.577Z,10.65
2024-05-09T01:30:38.869Z,10.63
2024-05-09T01:31:38.500Z,10.62
2024-05-09T01:32:38.549Z,10.58
2024-05-09T01:33:38.774Z,10.58
2024-05-09T01:34:38.436Z,10.55
2024-05-09T01:35:38.530Z,10.53
2024-05-09T01:36:38.375Z,10.46
2024-05-09T01:37:38.401Z,10.46
2024-05-09T01:38:38.440Z,10.47
2024-05-09T01:39:38.419Z,10.53
2024-05-09T01:40:40.142Z,10.52
2024-05-09T01:41:38.432Z,10.47
2024-05-09T01:42:38.372Z,10.42
2024-05-09T01:43:38.338Z,10.40
2024-05-09T01:44:38.420Z,10.36
2024-05-09T01:45:38.360Z,10.33
2024-05-09T01:46:38.316Z,10.39
2024-05-09T01:47:38.475Z,10.39
2024-05-09T01:48:38.407Z,10.36
2024-05-09T01:49:38.330Z,10.36
2024-05-09T01:50:41.455Z,10.36
2024-05-09T01:51:38.283Z,10.33
2024-05-09T01:52:38.259Z,10.30
2024-05-09T01:53:38.319Z,10.25
2024-05-09T01:54:38.240Z,10.26
2024-05-09T01:55:38.387Z,10.19
2024-05-09T01:56:38.215Z,10.24
2024-05-09T01:57:38.197Z,10.25
2024-05-09T01:58:38.178Z,10.22
2024-05-09T01:59:38.224Z,10.25
2024-05-09T02:00:41.424Z,10.21
2024-05-09T02:01:55.776Z,10.18
2024-05-09T02:02:38.283Z,10.15
2024-05-09T02:03:38.284Z,10.21
2024-05-09T02:04:38.181Z,10.21
2024-05-09T02:05:38.248Z,10.18
2024-05-09T02:06:38.140Z,10.19
2024-05-09T02:07:38.100Z,10.17
2024-05-09T02:08:38.190Z,10.12
2024-05-09T02:09:38.100Z,10.06
2024-05-09T02:10:38.080Z,10.03
2024-05-09T02:11:38.134Z,10.00
2024-05-09T02:12:38.052Z,9.96
2024-05-09T02:13:38.036Z,9.96
2024-05-09T02:14:38.044Z,9.93
2024-05-09T02:15:38.040Z,9.97
2024-05-09T02:16:37.993Z,9.96
2024-05-09T02:17:38.222Z,9.94
2024-05-09T02:18:38.135Z,9.88
2024-05-09T02:19:37.991Z,9.88
2024-05-09T02:20:38.030Z,9.88
2024-05-09T02:21:37.984Z,9.91
2024-05-09T02:22:37.940Z,9.93
2024-05-09T02:23:38.032Z,9.93
2024-05-09T02:24:37.930Z,9.93
2024-05-09T02:25:37.929Z,9.97
2024-05-09T02:26:37.902Z,9.94
2024-05-09T02:27:37.898Z,9.94
2024-05-09T02:28:37.892Z,9.97
2024-05-09T02:29:37.998Z,9.99
2024-05-09T02:30:40.962Z,10.01
2024-05-09T02:31:37.850Z,9.99
2024-05-09T02:32:38.081Z,9.97
2024-05-09T02:33:38.173Z,9.97
2024-05-09T02:34:37.849Z,9.96
2024-05-09T02:35:37.876Z,9.97
2024-05-09T02:36:37.807Z,9.91
2024-05-09T02:37:37.779Z,9.89
2024-05-09T02:38:37.877Z,9.88
2024-05-09T02:39:37.780Z,9.86
2024-05-09T02:40:39.470Z,9.88
2024-05-09T02:41:37.809Z,9.89
2024-05-09T02:42:37.736Z,9.93
2024-05-09T02:43:37.709Z,9.91
2024-05-09T02:44:37.785Z,9.94
2024-05-09T02:45:37.720Z,9.86
2024-05-09T02:46:37.685Z,9.82
2024-05-09T02:47:37.860Z,9.83
2024-05-09T02:48:37.759Z,9.81
2024-05-09T02:49:37.712Z,9.79
2024-05-09T02:50:39.709Z,9.81
2024-05-09T02:51:37.647Z,9.76
2024-05-09T02:52:37.627Z,9.76
2024-05-09T02:53:37.716Z,9.78
2024-05-09T02:54:37.612Z,9.78
2024-05-09T02:55:37.623Z,9.78
2024-05-09T02:56:37.637Z,9.79
2024-05-09T02:57:37.582Z,9.79
2024-05-09T02:58:37.573Z,9.78
2024-05-09T02:59:37.591Z,9.76
2024-05-09T03:00:40.780Z,9.70
2024-05-09T03:01:37.614Z,9.68
2024-05-09T03:02:37.595Z,9.68
2024-05-09T03:03:37.762Z,9.66
2024-05-09T03:04:44.318Z,9.63
2024-05-09T03:05:37.624Z,9.60
2024-05-09T03:06:37.502Z,9.58
2024-05-09T03:07:37.587Z,9.53
2024-05-09T03:08:37.587Z,9.52
2024-05-09T03:09:37.483Z,9.52
2024-05-09T03:10:38.992Z,9.48
2024-05-09T03:11:37.520Z,9.45
2024-05-09T03:12:39.207Z,9.46
2024-05-09T03:13:37.452Z,9.43
2024-05-09T03:14:37.419Z,9.45
2024-05-09T03:15:37.458Z,9.40
2024-05-09T03:16:37.340Z,9.39
2024-05-09T03:17:37.526Z,9.42
2024-05-09T03:18:37.487Z,9.40
2024-05-09T03:19:37.522Z,9.38
2024-05-09T03:20:37.516Z,9.35
2024-05-09T03:21:37.291Z,9.31
2024-05-09T03:22:37.268Z,9.32
2024-05-09T03:23:37.270Z,9.30
2024-05-09T03:24:37.256Z,9.28
2024-05-09T03:25:37.251Z,9.25
2024-05-09T03:26:37.272Z,9.23
2024-05-09T03:27:37.224Z,9.24
2024-05-09T03:28:37.205Z,9.20
2024-05-09T03:29:37.220Z,9.18
2024-05-09T03:30:41.874Z,9.13
2024-05-09T03:31:37.207Z,9.10
2024-05-09T03:32:37.326Z,9.09
2024-05-09T03:33:37.685Z,9.02
2024-05-09T03:34:37.140Z,9.04
2024-05-09T03:35:37.175Z,9.01
2024-05-09T03:36:37.104Z,9.01
2024-05-09T03:37:37.107Z,8.97
2024-05-09T03:38:37.285Z,8.99
2024-05-09T03:39:37.090Z,8.93
2024-05-09T03:40:37.078Z,8.94
2024-05-09T03:41:37.260Z,8.96
2024-05-09T03:42:37.050Z,8.96
2024-05-09T03:43:37.041Z,8.93
2024-05-09T03:44:37.121Z,8.90
2024-05-09T03:45:37.017Z,8.90
2024-05-09T03:46:37.009Z,8.88
2024-05-09T03:47:37.165Z,8.84
2024-05-09T03:48:37.060Z,8.84
2024-05-09T03:49:37.080Z,8.81
2024-05-09T03:50:37.563Z,8.81
2024-05-09T03:51:36.955Z,8.79
2024-05-09T03:52:36.957Z,8.78
2024-05-09T03:53:36.943Z,8.75
2024-05-09T03:54:36.937Z,8.75
2024-05-09T03:55:36.911Z,8.76
2024-05-09T03:56:36.981Z,8.75
2024-05-09T03:57:36.898Z,8.76
2024-05-09T03:58:36.880Z,8.75
2024-05-09T03:59:37.006Z,8.75
2024-05-09T04:00:39.404Z,8.73
2024-05-09T04:01:36.952Z,8.73
2024-05-09T04:02:36.972Z,8.72
2024-05-09T04:03:36.967Z,8.71
2024-05-09T04:04:36.959Z,8.69
2024-05-09T04:05:36.907Z,8.69
2024-05-09T04:06:36.812Z,8.71
2024-05-09T04:07:36.793Z,8.71
2024-05-09T04:08:36.823Z,8.71
2024-05-09T04:09:36.795Z,8.71
2024-05-09T04:10:36.762Z,8.68
2024-05-09T04:11:36.845Z,8.72
2024-05-09T04:12:36.767Z,8.71
2024-05-09T04:13:36.720Z,8.69
2024-05-09T04:14:36.770Z,8.69
2024-05-09T04:15:36.701Z,8.68
2024-05-09T04:16:36.694Z,8.68
2024-05-09T04:17:36.860Z,8.68
2024-05-09T04:18:36.766Z,8.66
2024-05-09T04:19:36.729Z,8.66
2024-05-09T04:20:39.742Z,8.73
2024-05-09T04:21:36.635Z,8.71
2024-05-09T04:22:36.649Z,8.71
2024-05-09T04:23:36.701Z,8.71
2024-05-09T04:24:36.604Z,8.72
2024-05-09T04:25:36.673Z,8.75
2024-05-09T04:26:36.636Z,8.75
2024-05-09T04:27:36.581Z,8.73
2024-05-09T04:28:36.569Z,8.75
2024-05-09T04:29:36.587Z,8.75
2024-05-09T04:30:39.630Z,8.78
2024-05-09T04:31:36.559Z,8.76
2024-05-09T04:32:36.600Z,8.79
2024-05-09T04:33:36.668Z,8.83
2024-05-09T04:34:36.543Z,8.81
2024-05-09T04:35:36.609Z,8.83
2024-05-09T04:36:36.513Z,8.84
2024-05-09T04:37:36.496Z,8.83
2024-05-09T04:38:36.606Z,8.87
2024-05-09T04:39:36.505Z,8.87
2024-05-09T04:40:37.557Z,8.88
2024-05-09T04:41:36.535Z,8.91
2024-05-09T04:42:36.427Z,8.90
2024-05-09T04:43:36.411Z,8.96
2024-05-09T04:44:36.494Z,8.96
2024-05-09T04:45:36.407Z,8.99
2024-05-09T04:46:36.404Z,9.02
2024-05-09T04:47:36.445Z,9.06
2024-05-09T04:48:36.525Z,9.06
2024-05-09T04:49:36.417Z,9.09
2024-05-09T04:50:38.863Z,9.12
2024-05-09T04:51:36.349Z,9.15
2024-05-09T04:52:36.313Z,9.13
2024-05-09T04:53:36.430Z,9.15
2024-05-09T04:54:36.866Z,9.24
2024-05-09T04:55:36.348Z,9.21
2024-05-09T04:56:36.395Z,9.27
2024-05-09T04:57:36.287Z,9.25
2024-05-09T04:58:36.258Z,9.27
2024-05-09T04:59:36.318Z,9.28
2024-05-09T05:00:38.224Z,9.28
2024-05-09T05:01:36.318Z,9.30
2024-05-09T05:02:36.264Z,9.34
2024-05-09T05:03:36.299Z,9.35
2024-05-09T05:04:36.297Z,9.38
2024-05-09T05:05:36.262Z,9.39
2024-05-09T05:06:36.225Z,9.38
2024-05-09T05:07:36.163Z,9.45
2024-05-09T05:08:36.250Z,9.48
2024-05-09T05:09:36.142Z,9.46
2024-05-09T05:10:36.974Z,9.48
2024-05-09T05:11:36.223Z,9.50
2024-05-09T05:12:36.187Z,9.52
2024-05-09T05:13:38.658Z,9.56
2024-05-09T05:14:36.168Z,9.57
2024-05-09T05:15:36.076Z,9.63
2024-05-09T05:16:36.087Z,9.66
2024-05-09T05:17:36.431Z,9.70
2024-05-09T05:18:36.181Z,9.75
2024-05-09T05:19:36.182Z,9.75
2024-05-09T05:20:36.093Z,9.78
2024-05-09T05:21:36.018Z,9.81
2024-05-09T05:22:36.031Z,9.86
2024-05-09T05:23:36.117Z,9.85
2024-05-09T05:24:35.986Z,9.88
2024-05-09T05:25:35.975Z,9.94
2024-05-09T05:26:36.042Z,9.93
2024-05-09T05:27:35.978Z,10.01
2024-05-09T05:28:35.958Z,10.06
2024-05-09T05:29:36.007Z,10.17
2024-05-09T05:30:35.926Z,10.25
2024-05-09T05:31:35.951Z,10.26
2024-05-09T05:32:36.071Z,10.32
2024-05-09T05:33:35.956Z,10.33
2024-05-09T05:34:35.889Z,10.34
2024-05-09T05:35:35.931Z,10.36
2024-05-09T05:36:35.860Z,10.40
2024-05-09T05:37:35.851Z,10.43
2024-05-09T05:38:35.954Z,10.47
2024-05-09T05:39:35.843Z,10.52
2024-05-09T05:40:37.911Z,10.53
2024-05-09T05:41:35.883Z,10.62
2024-05-09T05:42:35.804Z,10.65
2024-05-09T05:43:35.792Z,10.70
2024-05-09T05:44:35.834Z,10.73
2024-05-09T05:45:35.774Z,10.73
2024-05-09T05:46:35.781Z,10.77
2024-05-09T05:47:35.882Z,10.78
2024-05-09T05:48:35.827Z,10.83
2024-05-09T05:49:35.830Z,10.84
2024-05-09T05:50:37.794Z,10.91
2024-05-09T05:51:35.737Z,10.94
2024-05-09T05:52:35.700Z,10.94
2024-05-09T05:53:35.867Z,10.96
2024-05-09T05:54:35.682Z,11.02
2024-05-09T05:55:35.678Z,11.09
2024-05-09T05:56:35.778Z,11.11
2024-05-09T05:57:35.648Z,11.16
2024-05-09T05:58:35.668Z,11.20
2024-05-09T05:59:35.690Z,11.19
2024-05-09T06:00:39.008Z,11.27
2024-05-09T06:01:35.642Z,11.28
2024-05-09T06:02:35.692Z,11.32
2024-05-09T06:03:35.636Z,11.32
2024-05-09T06:04:35.629Z,11.39
2024-05-09T06:05:35.783Z,11.44
2024-05-09T06:06:35.617Z,11.52
2024-05-09T06:07:35.567Z,11.53
2024-05-09T06:08:35.586Z,11.57
2024-05-09T06:09:35.511Z,11.70
2024-05-09T06:10:39.342Z,11.77
2024-05-09T06:11:35.601Z,11.75
2024-05-09T06:12:35.493Z,11.83
2024-05-09T06:13:35.479Z,11.89
2024-05-09T06:14:35.583Z,12.01
2024-05-09T06:15:35.490Z,12.08
2024-05-09T06:16:35.476Z,12.13
2024-05-09T06:17:35.692Z,12.19
2024-05-09T06:18:35.787Z,12.26
2024-05-09T06:19:35.538Z,12.27
2024-05-09T06:20:37.871Z,12.31
2024-05-09T06:21:35.421Z,12.34
2024-05-09T06:22:35.438Z,12.39
2024-05-09T06:23:35.540Z,12.49
2024-05-09T06:24:35.437Z,12.46
2024-05-09T06:25:35.809Z,12.52
2024-05-09T06:26:35.471Z,12.57
2024-05-09T06:27:35.321Z,12.60
2024-05-09T06:28:35.360Z,12.63
2024-05-09T06:29:35.351Z,12.70
2024-05-09T06:30:39.679Z,12.75
2024-05-09T06:31:35.360Z,12.79
2024-05-09T06:32:35.519Z,12.79
2024-05-09T06:33:35.486Z,12.85
2024-05-09T06:34:35.360Z,12.89
2024-05-09T06:35:35.514Z,12.92
2024-05-09T06:36:35.256Z,13.00
2024-05-09T06:37:35.255Z,13.02
2024-05-09T06:38:35.356Z,13.04
2024-05-09T06:39:35.209Z,13.12
2024-05-09T06:40:38.535Z,13.15
2024-05-09T06:41:35.288Z,13.20
2024-05-09T06:42:35.188Z,13.24
2024-05-09T06:43:35.189Z,13.32
2024-05-09T06:44:35.278Z,13.30
2024-05-09T06:45:35.151Z,13.32
2024-05-09T06:46:35.154Z,13.38
2024-05-09T06:47:35.272Z,13.43
2024-05-09T06:48:35.382Z,13.44
2024-05-09T06:49:35.139Z,13.52
2024-05-09T06:50:38.002Z,13.54
2024-05-09T06:51:35.082Z,13.54
2024-05-09T06:52:35.076Z,13.59
2024-05-09T06:53:35.212Z,13.63
2024-05-09T06:54:35.048Z,13.65
2024-05-09T06:55:35.037Z,13.67
2024-05-09T06:56:35.056Z,13.73
2024-05-09T06:57:35.021Z,13.80
2024-05-09T06:58:35.032Z,13.84
2024-05-09T06:59:35.065Z,13.94
2024-05-09T07:00:39.317Z,13.99
2024-05-09T07:01:35.023Z,14.02
2024-05-09T07:02:35.116Z,14.04
2024-05-09T07:03:35.179Z,14.07
2024-05-09T07:04:35.036Z,14.12
2024-05-09T07:05:34.974Z,14.16
2024-05-09T07:06:34.924Z,14.25
2024-05-09T07:07:34.912Z,14.31
2024-05-09T07:08:35.072Z,14.42
2024-05-09T07:09:34.902Z,14.38
2024-05-09T07:10:36.181Z,14.44
2024-05-09T07:11:34.957Z,14.50
2024-05-09T07:12:34.975Z,14.54
2024-05-09T07:13:34.847Z,14.53
2024-05-09T07:14:36.928Z,14.54
2024-05-09T07:15:34.860Z,14.62
2024-05-09T07:16:34.823Z,14.68
2024-05-09T07:17:34.963Z,14.69
2024-05-09T07:18:34.933Z,14.74
2024-05-09T07:19:34.845Z,14.81
2024-05-09T07:20:35.325Z,14.88
2024-05-09T07:21:34.763Z,14.91
2024-05-09T07:22:34.755Z,15.02
2024-05-09T07:23:34.924Z,15.06
2024-05-09T07:24:34.777Z,15.09
2024-05-09T07:25:34.731Z,15.15
2024-05-09T07:26:34.820Z,15.19
2024-05-09T07:27:34.698Z,15.21
2024-05-09T07:28:34.712Z,15.33
2024-05-09T07:29:37.873Z,15.28
2024-05-09T07:30:35.245Z,15.33
2024-05-09T07:31:34.692Z,15.36
2024-05-09T07:32:34.749Z,15.35
2024-05-09T07:33:34.668Z,15.35
2024-05-09T07:34:34.756Z,15.42
2024-05-09T07:35:34.881Z,15.42
2024-05-09T07:36:34.604Z,15.45
2024-05-09T07:37:34.583Z,15.51
2024-05-09T07:38:34.584Z,15.51
2024-05-09T07:39:34.571Z,15.48
2024-05-09T07:40:36.651Z,15.54
2024-05-09T07:41:34.606Z,15.60
2024-05-09T07:42:34.538Z,15.63
2024-05-09T07:43:34.522Z,15.72
2024-05-09T07:44:34.575Z,15.74
2024-05-09T07:48:57.855Z,15.88
2024-05-09T07:53:20.363Z,15.89
2024-05-09T07:53:46.214Z,16.00
2024-05-09T07:53:57.256Z,16.00
2024-05-09T07:54:53.476Z,16.07
2024-05-09T07:55:53.490Z,16.12
2024-05-09T07:56:53.518Z,16.18
2024-05-09T07:57:53.320Z,16.30
2024-05-09T07:58:53.353Z,16.33
2024-05-09T07:59:53.216Z,16.41
2024-05-09T08:00:53.328Z,16.34
2024-05-09T08:01:53.330Z,16.34
2024-05-09T08:02:53.244Z,16.37
2024-05-09T08:03:53.565Z,16.30
2024-05-09T08:04:53.291Z,16.31
2024-05-09T08:05:53.371Z,16.40
2024-05-09T08:06:53.194Z,16.42
2024-05-09T08:07:53.162Z,16.45
2024-05-09T08:08:53.147Z,16.44
2024-05-09T08:09:53.293Z,16.52
2024-05-09T08:10:53.241Z,16.65
2024-05-09T08:11:53.164Z,16.68
2024-05-09T08:12:53.331Z,16.70
2024-05-09T08:13:53.068Z,16.83
2024-05-09T08:14:53.077Z,16.90
2024-05-09T08:15:53.183Z,16.96
2024-05-09T08:16:53.146Z,17.03
2024-05-09T08:17:53.181Z,16.98
2024-05-09T08:18:53.119Z,16.99
2024-05-09T08:19:53.040Z,16.99
2024-05-09T08:20:52.998Z,17.00
2024-05-09T08:21:52.981Z,17.13
2024-05-09T08:22:53.089Z,17.13
2024-05-09T08:23:52.985Z,17.14
2024-05-09T08:24:53.117Z,17.17
2024-05-09T08:25:52.971Z,17.11
2024-05-09T08:26:52.921Z,17.11
2024-05-09T08:27:53.083Z,17.15
2024-05-09T08:28:52.907Z,17.14
2024-05-09T08:29:52.928Z,17.08
2024-05-09T08:30:53.012Z,17.11
2024-05-09T08:31:52.900Z,16.93
2024-05-09T08:32:52.998Z,16.89
2024-05-09T08:33:53.171Z,16.85
2024-05-09T08:34:52.899Z,16.83
2024-05-09T08:35:52.847Z,16.95
2024-05-09T08:36:52.876Z,17.04
2024-05-09T08:37:52.844Z,17.13
2024-05-09T08:38:52.823Z,17.22
2024-05-09T08:39:52.898Z,17.26
2024-05-09T08:40:52.802Z,17.28
2024-05-09T08:41:52.756Z,17.28
2024-05-09T08:42:52.962Z,17.36
2024-05-09T08:43:52.742Z,17.44
2024-05-09T08:44:52.741Z,17.38
2024-05-09T08:45:52.759Z,17.43
2024-05-09T08:46:52.731Z,17.48
2024-05-09T08:47:52.859Z,17.43
2024-05-09T08:48:52.890Z,17.47
2024-05-09T08:49:52.833Z,17.22
2024-05-09T08:50:52.906Z,17.25
2024-05-09T08:51:52.710Z,17.33
2024-05-09T08:52:52.711Z,17.35
2024-05-09T08:53:52.698Z,17.38
2024-05-09T08:54:52.760Z,17.32
2024-05-09T08:55:52.725Z,17.33
2024-05-09T08:56:52.669Z,17.43
2024-05-09T08:57:52.780Z,17.46
2024-05-09T09:00:35.592Z,17.48
2024-05-09T09:01:28.054Z,17.50
2024-05-09T09:02:28.110Z,17.54
2024-05-09T09:03:28.065Z,17.55
2024-05-09T09:04:27.974Z,17.62
2024-05-09T09:05:28.116Z,17.70
2024-05-09T09:06:27.984Z,17.84
2024-05-09T09:07:27.879Z,17.95
2024-05-09T09:08:27.852Z,18.03
2024-05-09T09:09:27.931Z,18.03
2024-05-09T09:10:32.068Z,18.03
2024-05-09T09:11:27.886Z,18.06
2024-05-09T09:12:27.866Z,18.15
2024-05-09T09:13:27.798Z,18.13
2024-05-09T09:14:27.805Z,18.10
2024-05-09T09:15:28.030Z,18.12
2024-05-09T09:16:27.927Z,18.10
2024-05-09T09:17:27.789Z,17.99
2024-05-09T09:18:28.099Z,18.02
2024-05-09T09:19:27.811Z,18.07
2024-05-09T09:20:35.361Z,18.07
2024-05-09T09:21:27.732Z,18.10
2024-05-09T09:22:27.759Z,18.12
2024-05-09T09:23:27.710Z,18.12
2024-05-09T09:24:27.716Z,18.10
2024-05-09T09:25:27.672Z,18.13
2024-05-09T09:26:27.635Z,18.04
2024-05-09T09:27:27.687Z,17.91
2024-05-09T09:28:27.629Z,17.81
2024-05-09T09:29:27.642Z,17.89
2024-05-09T09:30:35.263Z,17.91
2024-05-09T09:31:27.747Z,17.84
2024-05-09T09:32:27.665Z,17.87
2024-05-09T09:33:27.974Z,18.00
2024-05-09T09:34:27.733Z,18.12
2024-05-09T09:35:27.563Z,18.25
2024-05-09T09:36:27.650Z,18.40
2024-05-09T09:37:27.596Z,18.44
2024-05-09T09:38:27.529Z,18.49
2024-05-09T09:39:27.553Z,18.46
2024-05-09T09:40:32.141Z,18.57
2024-05-09T09:41:27.503Z,18.65
2024-05-09T09:42:27.575Z,18.70
2024-05-09T09:43:27.496Z,18.76
2024-05-09T09:44:27.465Z,18.84
2024-05-09T09:45:27.483Z,18.95
2024-05-09T09:46:27.529Z,19.10
2024-05-09T09:47:27.540Z,19.20
2024-05-09T09:48:27.478Z,19.29
2024-05-09T09:49:27.496Z,19.40
2024-05-09T09:50:33.735Z,19.53
2024-05-09T09:51:27.444Z,19.68
2024-05-09T09:52:27.378Z,19.72
2024-05-09T09:53:27.392Z,19.79
2024-05-09T09:54:27.413Z,19.73
2024-05-09T09:55:27.410Z,19.53
2024-05-09T09:56:27.340Z,19.50
2024-05-09T09:57:27.418Z,19.36
2024-05-09T09:58:27.537Z,19.28
2024-05-09T09:59:27.314Z,19.21
2024-05-09T10:00:32.522Z,18.99
2024-05-09T10:01:27.376Z,18.82
2024-05-09T10:02:27.336Z,18.91
2024-05-09T10:03:27.594Z,19.08
2024-05-09T10:04:27.304Z,19.21
2024-05-09T10:05:27.642Z,19.28
2024-05-09T10:06:27.336Z,19.43
2024-05-09T10:07:27.212Z,19.57
2024-05-09T10:08:27.249Z,19.50
2024-05-09T10:09:27.282Z,19.43
2024-05-09T10:10:32.093Z,19.38
2024-05-09T10:11:27.196Z,19.28
2024-05-09T10:12:27.224Z,19.23
2024-05-09T10:13:27.204Z,19.21
2024-05-09T10:14:27.156Z,19.15
2024-05-09T10:15:27.173Z,18.94
2024-05-09T10:16:27.219Z,19.11
2024-05-09T10:17:27.202Z,19.32
2024-05-09T10:18:29.426Z,19.50
2024-05-09T10:19:27.203Z,19.57
2024-05-09T10:20:30.911Z,19.54
2024-05-09T10:21:27.091Z,19.48
2024-05-09T10:22:27.104Z,19.47
2024-05-09T10:23:27.044Z,19.60
2024-05-09T10:24:27.062Z,19.73
2024-05-09T10:25:27.061Z,19.83
2024-05-09T10:26:27.001Z,19.88
2024-05-09T10:27:27.022Z,19.76
2024-05-09T10:28:27.008Z,19.78
2024-05-09T10:29:27.040Z,19.72
2024-05-09T10:30:33.994Z,19.47
2024-05-09T10:31:27.001Z,19.38
2024-05-09T10:32:27.046Z,19.51
2024-05-09T10:33:27.104Z,19.73
2024-05-09T10:34:27.049Z,19.95
2024-05-09T10:35:26.966Z,20.20
2024-05-09T10:36:26.966Z,20.23
2024-05-09T10:37:27.020Z,20.31
2024-05-09T10:38:26.893Z,20.38
2024-05-09T10:39:26.865Z,20.41
2024-05-09T10:40:31.344Z,20.64
2024-05-09T10:41:26.878Z,20.84
2024-05-09T10:42:26.883Z,21.09
2024-05-09T10:43:26.864Z,21.29
2024-05-09T10:44:26.862Z,21.35
2024-05-09T10:45:26.798Z,21.14
2024-05-09T10:46:26.841Z,20.77
2024-05-09T10:47:26.867Z,20.34
2024-05-09T10:48:26.936Z,19.93
2024-05-09T10:49:26.844Z,19.69
2024-05-09T10:50:31.810Z,19.47
2024-05-09T10:51:26.735Z,19.25
2024-05-09T10:52:26.831Z,19.01
2024-05-09T10:53:26.736Z,18.86
2024-05-09T10:54:26.707Z,18.79
2024-05-09T10:55:26.749Z,18.86
2024-05-09T10:56:26.744Z,18.82
2024-05-09T10:57:26.676Z,18.97
2024-05-09T10:58:26.684Z,19.35
2024-05-09T10:59:26.701Z,19.69
2024-05-09T11:00:30.729Z,19.94
2024-05-09T11:01:26.736Z,20.31
2024-05-09T11:02:26.752Z,20.64
2024-05-09T11:03:26.753Z,20.90
2024-05-09T11:04:26.696Z,21.05
2024-05-09T11:05:26.633Z,21.23
2024-05-09T11:06:26.592Z,21.32
2024-05-09T11:07:26.663Z,21.36
2024-05-09T11:08:26.559Z,21.23
2024-05-09T11:09:26.567Z,21.32
2024-05-09T11:10:33.524Z,21.48
2024-05-09T11:11:26.580Z,21.69
2024-05-09T11:12:26.531Z,21.76
2024-05-09T11:13:26.495Z,21.94
2024-05-09T11:14:26.515Z,22.07
2024-05-09T11:15:26.503Z,22.16
2024-05-09T11:16:26.551Z,22.25
2024-05-09T11:17:26.638Z,22.34
2024-05-09T11:18:28.139Z,22.44
2024-05-09T11:19:26.561Z,22.46
2024-05-09T11:20:29.660Z,22.43
2024-05-09T11:21:26.445Z,22.22
2024-05-09T11:22:26.443Z,22.09
2024-05-09T11:23:26.385Z,21.90
2024-05-09T11:24:26.417Z,21.79
2024-05-09T11:25:26.417Z,21.64
2024-05-09T11:26:26.362Z,21.57
2024-05-09T11:27:26.395Z,21.69
2024-05-09T11:28:26.415Z,21.78
2024-05-09T11:29:26.345Z,21.74
2024-05-09T11:30:31.613Z,21.50
2024-05-09T11:31:26.493Z,21.32
2024-05-09T11:32:26.473Z,21.36
2024-05-09T11:33:26.416Z,21.42
2024-05-09T11:34:26.410Z,21.35
2024-05-09T11:35:26.280Z,21.35
2024-05-09T11:36:26.276Z,21.34
2024-05-09T11:37:26.337Z,21.46
2024-05-09T11:38:26.254Z,21.53
2024-05-09T11:39:26.311Z,21.53
2024-05-09T11:40:32.331Z,21.39
2024-05-09T11:41:26.215Z,21.19
2024-05-09T11:42:26.313Z,21.19
2024-05-09T11:43:26.226Z,21.19
2024-05-09T11:44:26.172Z,21.04
2024-05-09T11:45:26.166Z,21.02
2024-05-09T11:46:26.449Z,20.84
2024-05-09T11:47:26.271Z,20.47
2024-05-09T11:48:26.645Z,20.34
2024-05-09T11:49:27.156Z,20.49
2024-05-09T11:50:30.136Z,20.59
2024-05-09T11:51:26.198Z,20.42
2024-05-09T11:52:26.141Z,20.28
2024-05-09T11:53:26.131Z,20.41
2024-05-09T11:54:26.092Z,20.58
2024-05-09T11:55:28.154Z,20.72
2024-05-09T11:56:26.058Z,20.76
2024-05-09T11:57:26.075Z,20.79
2024-05-09T11:58:26.117Z,20.89
2024-05-09T11:59:26.003Z,21.06
2024-05-09T12:00:33.985Z,21.14
2024-05-09T12:01:27.928Z,21.20
2024-05-09T12:02:26.136Z,21.11
2024-05-09T12:03:26.003Z,21.21
2024-05-09T12:04:26.159Z,21.24
2024-05-09T12:05:26.232Z,21.20
2024-05-09T12:06:26.019Z,21.23
2024-05-09T12:07:25.972Z,21.30
2024-05-09T12:08:25.984Z,21.48
2024-05-09T12:09:25.924Z,21.54
2024-05-09T12:10:32.317Z,21.50
2024-05-09T12:11:25.935Z,21.48
2024-05-09T12:12:25.978Z,21.59
2024-05-09T12:13:26.046Z,21.60
2024-05-09T12:14:25.983Z,21.57
2024-05-09T12:15:25.861Z,21.39
2024-05-09T12:16:26.739Z,21.19
2024-05-09T12:17:25.926Z,21.19
2024-05-09T12:18:25.906Z,21.29
2024-05-09T12:19:25.884Z,21.32
2024-05-09T12:20:33.162Z,21.44
2024-05-09T12:21:26.637Z,21.56
2024-05-09T12:22:25.851Z,21.63
2024-05-09T12:23:25.859Z,21.60
2024-05-09T12:24:25.786Z,21.59
2024-05-09T12:25:25.758Z,21.64
2024-05-09T12:26:25.745Z,21.66
2024-05-09T12:27:25.810Z,21.35
2024-05-09T12:28:25.760Z,21.04
2024-05-09T12:29:25.727Z,20.91
2024-05-09T12:30:34.852Z,20.74
2024-05-09T12:32:36.810Z,20.61
2024-05-09T12:33:37.792Z,20.54
2024-05-09T12:34:37.922Z,20.53
2024-05-09T12:35:37.736Z,20.58
2024-05-09T12:36:37.694Z,20.81
2024-05-09T12:37:37.653Z,21.04
2024-05-09T12:38:37.621Z,21.23
2024-05-09T12:39:37.636Z,21.32
2024-05-09T12:40:39.100Z,21.42
2024-05-09T12:41:37.580Z,21.35
2024-05-09T12:42:37.637Z,21.45
2024-05-09T12:43:37.638Z,21.57
2024-05-09T12:44:37.582Z,21.66
2024-05-09T12:45:38.132Z,21.71
2024-05-09T12:46:37.611Z,21.63
2024-05-09T12:47:37.674Z,21.29
2024-05-09T12:48:37.686Z,21.05
2024-05-09T12:49:37.609Z,20.74
2024-05-09T12:50:37.513Z,20.53
2024-05-09T12:51:37.526Z,20.58
2024-05-09T12:52:37.489Z,20.49
2024-05-09T12:53:37.490Z,20.54
2024-05-09T12:54:37.523Z,20.61
2024-05-09T12:55:44.521Z,20.68
2024-05-09T12:56:37.451Z,20.54
2024-05-09T12:57:37.423Z,20.47
2024-05-09T12:58:37.467Z,20.35
2024-05-09T12:59:37.413Z,20.18
2024-05-09T13:00:37.513Z,20.02
2024-05-09T13:01:37.483Z,20.02
2024-05-09T13:02:37.606Z,19.98
2024-05-09T13:03:37.530Z,19.90
2024-05-09T13:04:37.505Z,19.84
2024-05-09T13:05:37.418Z,19.84
2024-05-09T13:06:37.371Z,19.87